Time;durP1;ratioP1;P1;durP2;ratioP2;P2;SDS_P1;SDS_P2;PMS_P1;PMS_P2;Temp;Humidity;BMP_temperature;BMP_pressure;BME280_temperature;BME280_humidity;BME280_pressure;Samples;Min_cycle;Max_cycle;Signal;HPM_P1;HPM_P2
2023/04/01 00:00:19;;;;;;;2.53;1.20;;;;;;;9.62;100.00;99148.06;6275642;28;20048;-74
2023/04/01 00:03:22;;;;;;;1.95;1.00;;;;;;;9.61;100.00;99141.97;6275809;28;20057;-74
2023/04/01 00:06:24;;;;;;;1.83;1.10;;;;;;;9.57;100.00;99152.81;6275386;28;20060;-74
2023/04/01 00:09:25;;;;;;;2.88;1.40;;;;;;;9.59;100.00;99154.38;6275272;28;20045;-74
2023/04/01 00:12:27;;;;;;;5.97;2.22;;;;;;;9.61;100.00;99151.63;6274362;28;20365;-74
2023/04/01 00:15:28;;;;;;;2.25;1.00;;;;;;;9.58;100.00;99147.47;6274807;28;20048;-74
2023/04/01 00:18:31;;;;;;;3.42;1.55;;;;;;;9.53;100.00;99156.63;6274970;28;20326;-74
2023/04/01 00:21:32;;;;;;;1.52;1.00;;;;;;;9.53;100.00;99160.06;6274951;28;20147;-74
2023/04/01 00:24:34;;;;;;;2.60;1.70;;;;;;;9.55;100.00;99150.31;6275493;28;20056;-74
2023/04/01 00:27:35;;;;;;;1.55;0.88;;;;;;;9.54;100.00;99143.41;6274660;28;20460;-74
2023/04/01 00:30:37;;;;;;;1.65;0.93;;;;;;;9.54;100.00;99146.03;6274605;28;20052;-73
2023/04/01 00:33:40;;;;;;;2.03;1.02;;;;;;;9.52;100.00;99152.31;6274769;28;20184;-74
2023/04/01 00:36:42;;;;;;;1.88;0.60;;;;;;;9.52;100.00;99152.31;6275096;28;20182;-74
2023/04/01 00:39:44;;;;;;;1.70;0.90;;;;;;;9.50;100.00;99149.00;6275028;28;20056;-74
2023/04/01 00:42:45;;;;;;;3.08;0.77;;;;;;;9.52;100.00;99147.09;6274977;28;20053;-74
2023/04/01 00:45:49;;;;;;;1.10;0.85;;;;;;;9.55;100.00;99149.47;6274995;28;20053;-74
2023/04/01 00:48:54;;;;;;;1.65;0.82;;;;;;;9.53;100.00;99149.56;6274477;28;20457;-73
2023/04/01 00:52:00;;;;;;;1.05;0.90;;;;;;;9.50;100.00;99146.38;6275054;28;20052;-74
2023/04/01 00:55:05;;;;;;;0.60;0.60;;;;;;;9.46;100.00;99148.38;6274877;28;20060;-74
2023/04/01 00:58:13;;;;;;;2.72;1.10;;;;;;;9.49;100.00;99148.13;6274811;28;20049;-74
2023/04/01 01:01:16;;;;;;;1.73;0.80;;;;;;;9.49;100.00;99149.91;6274538;28;20049;-74
2023/04/01 01:04:28;;;;;;;0.90;0.70;;;;;;;9.47;100.00;99154.47;6274805;28;20175;-75
2023/04/01 01:07:40;;;;;;;1.00;0.73;;;;;;;9.45;100.00;99145.84;6274645;28;20049;-74
2023/04/01 01:10:47;;;;;;;0.60;0.60;;;;;;;9.42;100.00;99152.19;6274779;28;20049;-74
2023/04/01 01:13:57;;;;;;;3.67;0.85;;;;;;;9.39;100.00;99152.41;6274406;28;20361;-75
2023/04/01 01:17:07;;;;;;;2.38;0.93;;;;;;;9.38;100.00;99155.97;6273935;28;20049;-74
2023/04/01 01:20:34;;;;;;;0.90;0.80;;;;;;;9.36;100.00;99155.25;6271318;28;20041;-74
2023/04/01 01:24:10;;;;;;;0.75;0.70;;;;;;;9.34;100.00;99150.13;6268361;28;20050;-74
2023/04/01 01:27:13;;;;;;;2.85;0.98;;;;;;;9.38;100.00;99156.81;6272349;28;20258;-74
2023/04/01 01:30:34;;;;;;;4.22;1.05;;;;;;;9.38;100.00;99155.97;6274371;28;20421;-74
2023/04/01 01:33:47;;;;;;;0.75;0.70;;;;;;;9.35;100.00;99157.03;6267595;28;20060;-74
2023/04/01 01:36:54;;;;;;;1.20;0.82;;;;;;;9.34;100.00;99152.72;6274120;28;20045;-74
2023/04/01 01:40:01;;;;;;;0.60;0.60;;;;;;;9.33;100.00;99158.94;6274571;28;20049;-74
2023/04/01 01:43:07;;;;;;;1.38;0.85;;;;;;;9.35;100.00;99153.56;6276303;28;20056;-74
2023/04/01 01:46:12;;;;;;;2.42;0.98;;;;;;;9.36;100.00;99156.09;6278575;28;20049;-74
2023/04/01 01:49:15;;;;;;;3.88;1.00;;;;;;;9.34;100.00;99157.97;6278550;28;20359;-74
2023/04/01 01:52:18;;;;;;;0.70;0.60;;;;;;;9.37;100.00;99155.13;6278315;28;20361;-74
2023/04/01 01:55:26;;;;;;;1.23;0.93;;;;;;;9.40;100.00;99159.31;6278412;28;20150;-74
2023/04/01 01:58:31;;;;;;;0.80;0.70;;;;;;;9.34;100.00;99152.72;6278551;28;20575;-74
2023/04/01 02:01:36;;;;;;;0.73;0.73;;;;;;;9.37;100.00;99159.56;6278241;28;20056;-75
2023/04/01 02:04:41;;;;;;;1.73;1.15;;;;;;;9.36;100.00;99156.09;6278120;28;20044;-74
2023/04/01 02:07:47;;;;;;;1.55;0.95;;;;;;;9.32;100.00;99154.66;6277944;28;20048;-74
2023/04/01 02:10:56;;;;;;;1.35;0.90;;;;;;;9.34;100.00;99157.16;6277951;28;20060;-74
2023/04/01 02:14:03;;;;;;;0.50;0.50;;;;;;;9.35;100.00;99154.41;6277813;28;20480;-74
2023/04/01 02:17:09;;;;;;;2.25;0.90;;;;;;;9.35;100.00;99156.19;6277833;28;20052;-74
2023/04/01 02:20:16;;;;;;;0.80;0.80;;;;;;;9.33;100.00;99158.94;6277934;28;20080;-74
2023/04/01 02:23:19;;;;;;;2.63;0.75;;;;;;;9.35;100.00;99156.19;6278069;28;20053;-74
2023/04/01 02:26:21;;;;;;;5.28;1.38;;;;;;;9.33;100.00;99153.69;6277684;28;20053;-74
2023/04/01 02:29:25;;;;;;;1.83;0.90;;;;;;;9.34;100.00;99155.34;6277887;28;20048;-74
2023/04/01 02:32:28;;;;;;;1.35;1.08;;;;;;;9.33;100.00;99160.72;6277590;28;20453;-74
2023/04/01 02:35:30;;;;;;;1.30;0.90;;;;;;;9.36;100.00;99156.09;6277621;28;20437;-75
2023/04/01 02:38:33;;;;;;;1.52;0.80;;;;;;;9.35;100.00;99159.63;6277572;28;20057;-74
2023/04/01 02:41:40;;;;;;;2.03;1.17;;;;;;;9.31;100.00;99158.22;6277584;28;20049;-74
2023/04/01 02:44:41;;;;;;;1.08;0.95;;;;;;;9.33;100.00;99160.72;6277273;28;20127;-74
2023/04/01 02:47:42;;;;;;;2.20;0.80;;;;;;;9.33;100.00;99169.41;6276991;28;20475;-74
2023/04/01 02:50:47;;;;;;;0.52;0.52;;;;;;;9.33;100.00;99165.97;6266660;28;20437;-74
2023/04/01 02:53:49;;;;;;;0.70;0.68;;;;;;;9.33;100.00;99166.78;6276662;28;20068;-74
2023/04/01 02:56:51;;;;;;;0.60;0.50;;;;;;;9.29;100.00;99167.97;6276536;28;20460;-74
2023/04/01 02:59:52;;;;;;;2.83;0.60;;;;;;;9.27;100.00;99169.03;6268712;28;20053;-74
2023/04/01 03:02:54;;;;;;;1.08;0.70;;;;;;;9.29;100.00;99172.38;6276609;28;20271;-74
2023/04/01 03:05:56;;;;;;;1.15;0.82;;;;;;;9.29;100.00;99173.22;6276732;28;20045;-74
2023/04/01 03:08:58;;;;;;;2.45;0.80;;;;;;;9.30;100.00;99171.41;6276442;28;20049;-73
2023/04/01 03:12:00;;;;;;;0.47;0.47;;;;;;;9.29;100.00;99178.44;6276719;28;20041;-74
2023/04/01 03:15:01;;;;;;;1.83;0.70;;;;;;;9.26;100.00;99178.66;6276262;28;20049;-74
2023/04/01 03:18:02;;;;;;;1.80;0.50;;;;;;;9.24;100.00;99175.34;6276129;28;20053;-74
2023/04/01 03:21:17;;;;;;;1.40;0.65;;;;;;;9.20;100.00;99173.88;6276259;28;20642;-74
2023/04/01 03:24:20;;;;;;;0.68;0.68;;;;;;;9.19;100.00;99177.47;6275903;28;20049;-74
2023/04/01 03:27:23;;;;;;;0.68;0.50;;;;;;;9.19;100.00;99176.63;6275939;28;20056;-74
2023/04/01 03:30:24;;;;;;;0.40;0.40;;;;;;;9.17;100.00;99175.88;6275716;28;20357;-74
2023/04/01 03:33:25;;;;;;;0.73;0.52;;;;;;;9.15;100.00;99174.22;6275897;28;20056;-74
2023/04/01 03:36:27;;;;;;;3.95;0.60;;;;;;;9.14;100.00;99169.94;6267756;28;20451;-75
2023/04/01 03:39:29;;;;;;;0.50;0.50;;;;;;;9.14;100.00;99169.94;6276079;28;20060;-74
2023/04/01 03:42:32;;;;;;;0.65;0.60;;;;;;;9.08;100.00;99178.25;6275751;28;20045;-74
2023/04/01 03:45:33;;;;;;;0.50;0.50;;;;;;;9.09;100.00;99174.66;6275359;28;20338;-74
2023/04/01 03:48:34;;;;;;;0.93;0.60;;;;;;;9.13;100.00;99172.66;6273638;28;20056;-75
2023/04/01 03:51:36;;;;;;;0.50;0.50;;;;;;;9.14;100.00;99182.19;6264753;28;20431;-74
2023/04/01 03:54:39;;;;;;;0.73;0.50;;;;;;;9.14;100.00;99179.59;6267589;28;20060;-75
2023/04/01 03:57:40;;;;;;;0.45;0.45;;;;;;;9.15;100.00;99184.69;6268190;28;20444;-75
2023/04/01 04:00:42;;;;;;;2.30;0.57;;;;;;;9.16;100.00;99180.28;6269221;28;20052;-75
2023/04/01 04:03:43;;;;;;;0.65;0.65;;;;;;;9.17;100.00;99184.56;6270253;28;20045;-75
2023/04/01 04:06:45;;;;;;;1.48;0.70;;;;;;;9.18;100.00;99183.66;6268229;28;20365;-75
2023/04/01 04:09:48;;;;;;;2.00;0.63;;;;;;;9.19;100.00;99185.31;6265665;28;20064;-75
2023/04/01 04:12:50;;;;;;;1.75;0.50;;;;;;;9.18;100.00;99188.06;6268778;28;20049;-74
2023/04/01 04:15:51;;;;;;;0.88;0.45;;;;;;;9.17;100.00;99189.00;6268916;28;20049;-75
2023/04/01 04:18:53;;;;;;;0.50;0.50;;;;;;;9.17;100.00;99189.81;6268819;28;20060;-75
2023/04/01 04:21:54;;;;;;;0.45;0.45;;;;;;;9.16;100.00;99188.16;6269499;28;20064;-74
2023/04/01 04:24:57;;;;;;;0.38;0.38;;;;;;;9.17;100.00;99194.22;6269649;28;20051;-75
2023/04/01 04:27:58;;;;;;;0.47;0.30;;;;;;;9.18;100.00;99195.94;6268859;28;20060;-74
2023/04/01 04:31:00;;;;;;;0.73;0.68;;;;;;;9.19;100.00;99203.66;6266689;28;20041;-75
2023/04/01 04:34:02;;;;;;;0.40;0.38;;;;;;;9.19;100.00;99197.59;6261056;28;20621;-74
2023/04/01 04:37:03;;;;;;;0.85;0.50;;;;;;;9.15;100.00;99204.84;6257161;28;20045;-74
2023/04/01 04:40:08;;;;;;;0.65;0.60;;;;;;;9.12;100.00;99205.03;6252308;28;20051;-74
2023/04/01 04:43:11;;;;;;;0.95;0.70;;;;;;;9.17;100.00;99209.94;6257249;28;20486;-74
2023/04/01 04:46:13;;;;;;;0.75;0.50;;;;;;;9.19;100.00;99210.69;6253721;28;20044;-74
2023/04/01 04:49:14;;;;;;;0.47;0.40;;;;;;;9.18;100.00;99209.88;6264976;28;20045;-74
2023/04/01 04:52:16;;;;;;;0.88;0.52;;;;;;;9.18;100.00;99214.28;6274703;28;20045;-74
2023/04/01 04:55:18;;;;;;;0.80;0.50;;;;;;;9.15;100.00;99216.16;6274777;28;20045;-75
2023/04/01 04:58:20;;;;;;;1.08;0.63;;;;;;;9.19;100.00;99222.00;6274369;28;20060;-75
2023/04/01 05:01:23;;;;;;;1.50;0.80;;;;;;;9.22;100.00;99216.56;6274707;28;20053;-74
2023/04/01 05:04:24;;;;;;;0.85;0.55;;;;;;;9.23;100.00;99223.47;6274549;28;20068;-74
2023/04/01 05:07:25;;;;;;;0.50;0.40;;;;;;;9.24;100.00;99221.69;6274479;28;20053;-75
2023/04/01 05:10:28;;;;;;;0.43;0.40;;;;;;;9.26;100.00;99222.41;6266236;28;20056;-74
2023/04/01 05:13:30;;;;;;;0.50;0.50;;;;;;;9.19;100.00;99224.63;6274556;28;20048;-74
2023/04/01 05:16:31;;;;;;;0.55;0.52;;;;;;;9.19;100.00;99221.19;6275847;28;20056;-75
2023/04/01 05:19:32;;;;;;;1.00;0.40;;;;;;;9.17;100.00;99223.88;6279109;28;20048;-75
2023/04/01 05:22:34;;;;;;;2.88;0.50;;;;;;;9.11;100.00;99233.03;6279043;28;20049;-74
2023/04/01 05:25:39;;;;;;;3.35;0.45;;;;;;;9.05;100.00;99233.50;6279107;28;20135;-74
2023/04/01 05:28:41;;;;;;;0.43;0.40;;;;;;;9.06;100.00;99235.16;6278816;28;20357;-74
2023/04/01 05:31:43;;;;;;;0.93;0.88;;;;;;;9.05;100.00;99235.28;6279137;28;20052;-75
2023/04/01 05:34:44;;;;;;;4.78;0.40;;;;;;;9.08;100.00;99242.91;6279053;28;20056;-75
2023/04/01 05:37:45;;;;;;;0.40;0.40;;;;;;;9.06;100.00;99243.00;6278495;28;20380;-75
2023/04/01 05:40:48;;;;;;;0.63;0.43;;;;;;;9.04;100.00;99244.91;6278605;28;20048;-74
2023/04/01 05:43:49;;;;;;;0.50;0.50;;;;;;;9.06;100.00;99250.88;6278629;28;20049;-74
2023/04/01 05:46:51;;;;;;;0.60;0.50;;;;;;;9.10;100.00;99249.72;6278215;28;20433;-75
2023/04/01 05:49:52;;;;;;;1.42;0.32;;;;;;;9.07;100.00;99249.91;6278531;28;20049;-74
2023/04/01 05:52:54;;;;;;;0.50;0.30;;;;;;;9.09;100.00;99252.47;6278380;28;20444;-74
2023/04/01 05:55:56;;;;;;;0.30;0.30;;;;;;;9.14;100.00;99252.97;6278191;28;20052;-74
2023/04/01 05:58:58;;;;;;;0.70;0.47;;;;;;;9.10;100.00;99254.97;6278388;28;20056;-74
2023/04/01 06:01:59;;;;;;;2.17;0.75;;;;;;;9.13;100.00;99256.53;6278277;28;20072;-74
2023/04/01 06:05:11;;;;;;;1.45;0.50;;;;;;;9.14;100.00;99259.03;6278043;28;20049;-75
2023/04/01 06:08:15;;;;;;;1.00;0.50;;;;;;;9.22;100.00;99260.25;6277848;28;20342;-74
2023/04/01 06:11:29;;;;;;;0.40;0.40;;;;;;;9.20;100.00;99264.78;6278164;28;20051;-74
2023/04/01 06:14:43;;;;;;;0.25;0.25;;;;;;;9.18;100.00;99262.28;6270219;28;20057;-74
2023/04/01 06:17:57;;;;;;;0.30;0.30;;;;;;;9.25;100.00;99268.75;6277426;28;20052;-74
2023/04/01 06:21:08;;;;;;;2.35;0.40;;;;;;;9.27;100.00;99266.88;6277711;28;20049;-74
2023/04/01 06:24:28;;;;;;;0.40;0.30;;;;;;;9.28;100.00;99275.56;6277991;28;20127;-74
2023/04/01 06:27:46;;;;;;;0.30;0.30;;;;;;;9.26;100.00;99277.44;6276677;28;20429;-74
2023/04/01 06:30:54;;;;;;;4.95;0.57;;;;;;;9.31;100.00;99280.56;6277722;28;20067;-75
2023/04/01 06:34:11;;;;;;;3.00;0.43;;;;;;;9.31;100.00;99283.19;6277442;28;20064;-74
2023/04/01 06:37:29;;;;;;;0.30;0.30;;;;;;;9.31;100.00;99283.19;6277420;28;20052;-75
2023/04/01 06:40:52;;;;;;;0.53;0.37;;;;;;;9.36;100.00;99283.72;6269783;28;20045;-75
2023/04/01 06:44:06;;;;;;;0.43;0.43;;;;;;;9.38;100.00;99287.06;6277303;28;20056;-75
2023/04/01 06:47:24;;;;;;;0.77;0.40;;;;;;;9.44;100.00;99283.16;6276948;28;20060;-74
2023/04/01 06:50:30;;;;;;;0.35;0.35;;;;;;;9.48;100.00;99287.22;6277089;28;20053;-75
2023/04/01 06:53:38;;;;;;;1.10;0.77;;;;;;;9.45;100.00;99288.31;6277390;28;20068;-75
2023/04/01 06:56:43;;;;;;;0.40;0.35;;;;;;;9.46;100.00;99292.59;6276889;28;20055;-74
2023/04/01 06:59:46;;;;;;;0.35;0.35;;;;;;;9.43;100.00;99292.81;6277084;28;20053;-75
2023/04/01 07:02:57;;;;;;;1.15;0.52;;;;;;;9.45;100.00;99292.69;6276613;28;20357;-74
2023/04/01 07:06:04;;;;;;;0.55;0.50;;;;;;;9.44;100.00;99298.88;6276910;28;20053;-75
2023/04/01 07:09:10;;;;;;;2.20;0.70;;;;;;;9.52;100.00;99304.41;6276514;28;20056;-75
2023/04/01 07:12:19;;;;;;;1.65;0.60;;;;;;;9.52;100.00;99305.25;6276678;28;20132;-75
2023/04/01 07:15:27;;;;;;;2.88;0.63;;;;;;;9.56;100.00;99308.50;6276289;28;20052;-75
2023/04/01 07:18:33;;;;;;;1.73;0.60;;;;;;;9.55;100.00;99312.06;6276182;28;20053;-74
2023/04/01 07:21:41;;;;;;;0.50;0.40;;;;;;;9.60;100.00;99312.56;6276178;28;20396;-75
2023/04/01 07:24:45;;;;;;;1.65;0.60;;;;;;;9.59;100.00;99318.78;6276445;28;20049;-75
2023/04/01 07:27:47;;;;;;;1.02;0.80;;;;;;;9.55;100.00;99322.56;6275857;28;20468;-75
2023/04/01 07:31:00;;;;;;;4.22;0.73;;;;;;;9.65;100.00;99326.19;6276249;28;20052;-74
2023/04/01 07:34:10;;;;;;;1.02;0.60;;;;;;;9.70;100.00;99328.47;6276373;28;20274;-74
2023/04/01 07:37:17;;;;;;;0.95;0.30;;;;;;;9.74;100.00;99330.78;6275894;28;20044;-74
2023/04/01 07:40:31;;;;;;;0.32;0.32;;;;;;;9.78;100.00;99334.00;6274972;28;20048;-75
2023/04/01 07:43:53;;;;;;;0.63;0.47;;;;;;;9.87;100.00;99339.44;6275861;28;20056;-74
2023/04/01 07:47:06;;;;;;;5.30;0.63;;;;;;;9.90;100.00;99347.09;6275228;28;20349;-74
2023/04/01 07:50:17;;;;;;;1.35;0.60;;;;;;;10.03;100.00;99344.38;6275854;28;20056;-75
2023/04/01 07:53:27;;;;;;;3.03;0.65;;;;;;;10.06;100.00;99351.19;6275851;28;20049;-74
2023/04/01 07:56:32;;;;;;;0.40;0.40;;;;;;;10.12;100.00;99354.19;6267252;28;20056;-75
2023/04/01 07:59:41;;;;;;;2.05;0.50;;;;;;;10.19;100.00;99362.47;6275562;28;20051;-74
2023/04/01 08:02:51;;;;;;;;;;;;;;;10.18;100.00;99363.44;6275839;28;20060;-75
2023/04/01 08:05:57;;;;;;;4.15;0.60;;;;;;;10.25;100.00;99361.22;6274726;28;20240;-74
2023/04/01 08:09:07;;;;;;;0.70;0.50;;;;;;;10.37;100.00;99370.81;6274763;28;20052;-74
2023/04/01 08:12:20;;;;;;;0.82;0.50;;;;;;;10.45;100.00;99373.69;6272690;28;20052;-74
2023/04/01 08:15:27;;;;;;;2.88;0.90;;;;;;;10.41;100.00;99382.75;6274697;28;20052;-74
2023/04/01 08:18:41;;;;;;;2.75;0.73;;;;;;;10.44;100.00;99376.44;6272308;28;20048;-74
2023/04/01 08:21:44;;;;;;;2.22;0.43;;;;;;;10.41;100.00;99382.75;6274295;28;20047;-74
2023/04/01 08:24:49;;;;;;;0.32;0.32;;;;;;;10.44;100.00;99385.13;6275070;28;20353;-74
2023/04/01 08:27:57;;;;;;;0.40;0.40;;;;;;;10.48;100.00;99391.84;6274859;28;20392;-74
2023/04/01 08:31:03;;;;;;;0.75;0.60;;;;;;;10.58;100.00;99390.22;6275209;28;20045;-74
2023/04/01 08:34:13;;;;;;;0.38;0.30;;;;;;;10.69;100.00;99396.44;6275112;28;20052;-75
2023/04/01 08:37:20;;;;;;;0.55;0.50;;;;;;;10.73;100.00;99392.66;6274967;28;20060;-74
2023/04/01 08:40:37;;;;;;;0.20;0.20;;;;;;;10.60;100.00;99397.97;6274956;28;20087;-74
2023/04/01 08:43:55;;;;;;;0.70;0.50;;;;;;;10.59;100.00;99394.53;6268038;28;20041;-75
2023/04/01 08:47:21;;;;;;;0.83;0.60;;;;;;;10.68;100.00;99402.66;6274554;28;20053;-75
2023/04/01 08:50:55;;;;;;;1.77;0.60;;;;;;;10.70;100.00;99403.38;6274697;28;20060;-74
2023/04/01 08:54:29;;;;;;;0.80;0.70;;;;;;;10.62;100.00;99404.78;6279945;28;20060;-74
2023/04/01 08:57:43;;;;;;;0.60;0.60;;;;;;;10.76;100.00;99403.72;6279115;28;20445;-74
2023/04/01 09:00:50;;;;;;;0.40;0.35;;;;;;;10.79;100.00;99410.56;6279560;28;20099;-74
2023/04/01 09:04:19;;;;;;;0.45;0.30;;;;;;;10.81;100.00;99413.91;6279449;28;20045;-75
2023/04/01 09:07:34;;;;;;;0.43;0.30;;;;;;;10.84;100.00;99419.75;6279336;28;20124;-75
2023/04/01 09:10:56;;;;;;;0.40;0.40;;;;;;;10.90;100.00;99415.81;6279637;28;20053;-74
2023/04/01 09:14:35;;;;;;;1.17;0.32;;;;;;;10.98;100.00;99417.88;6279460;28;20353;-75
2023/04/01 09:18:04;;;;;;;0.82;0.47;;;;;;;11.00;100.00;99422.09;6272278;28;20060;-74
2023/04/01 09:21:23;;;;;;;3.17;0.65;;;;;;;11.07;100.00;99417.19;6277893;28;20376;-74
2023/04/01 09:24:41;;;;;;;0.40;0.40;;;;;;;11.10;100.00;99415.16;6279345;28;20057;-74
2023/04/01 09:27:46;;;;;;;0.43;0.30;;;;;;;11.17;100.00;99428.66;6279024;28;20452;-75
2023/04/01 09:31:21;;;;;;;0.45;0.40;;;;;;;11.13;100.00;99432.50;6278903;28;20056;-75
2023/04/01 09:34:31;;;;;;;0.40;0.40;;;;;;;11.16;100.00;99434.88;6267682;28;20056;-75
2023/04/01 09:37:36;;;;;;;1.45;0.40;;;;;;;11.12;100.00;99433.44;6278878;28;20044;-75
2023/04/01 09:40:49;;;;;;;0.63;0.32;;;;;;;11.30;100.00;99444.34;6278910;28;20048;-74
2023/04/01 09:44:02;;;;;;;0.10;0.10;;;;;;;11.23;100.00;99453.66;6278930;28;20049;-74
2023/04/01 09:47:17;;;;;;;1.60;0.28;;;;;;;11.31;100.00;99446.88;6278470;28;20048;-74
2023/04/01 09:50:32;;;;;;;0.15;0.15;;;;;;;11.35;100.00;99450.06;6277350;28;20049;-74
2023/04/01 09:53:49;;;;;;;0.20;0.20;;;;;;;11.37;100.00;99459.53;6271015;28;20049;-74
2023/04/01 09:57:20;;;;;;;0.35;0.22;;;;;;;11.45;100.00;99452.84;6278610;28;20126;-74
2023/04/01 10:01:02;;;;;;;0.28;0.22;;;;;;;11.43;100.00;99455.59;6278659;28;20048;-74
2023/04/01 10:04:25;;;;;;;0.25;0.25;;;;;;;11.55;100.00;99467.78;6276886;28;20051;-75
2023/04/01 10:08:00;;;;;;;2.20;0.65;;;;;;;11.50;100.00;99467.31;6277939;28;20064;-75
2023/04/01 10:11:36;;;;;;;0.50;0.35;;;;;;;11.51;100.00;99470.78;6262564;28;20442;-74
2023/04/01 10:15:28;;;;;;;2.72;0.30;;;;;;;11.55;100.00;99467.78;6262095;28;20065;-74
2023/04/01 10:18:57;;;;;;;1.52;0.40;;;;;;;11.56;100.00;99471.25;6242286;28;20369;-74
2023/04/01 10:22:15;;;;;;;0.85;0.40;;;;;;;11.47;100.00;99479.88;6269450;28;20053;-73
2023/04/01 10:25:30;;;;;;;0.38;0.28;;;;;;;11.29;100.00;99485.56;6276056;28;20049;-73
2023/04/01 10:28:59;;;;;;;1.00;0.15;;;;;;;11.22;100.00;99489.66;6275373;28;20132;-73
2023/04/01 10:32:29;;;;;;;0.47;0.32;;;;;;;11.15;100.00;99486.63;6276201;28;20045;-73
2023/04/01 10:35:54;;;;;;;;;;;;;;;11.14;100.00;99484.97;6276279;28;20049;-73
2023/04/01 10:39:25;;;;;;;1.65;0.65;;;;;;;11.28;100.00;99485.72;6277541;28;20329;-73
2023/04/01 10:43:05;;;;;;;0.52;0.28;;;;;;;11.30;100.00;99492.50;6266859;28;20049;-73
2023/04/01 10:46:45;;;;;;;0.43;0.20;;;;;;;11.38;100.00;99487.50;6277100;28;20056;-73
2023/04/01 10:50:25;;;;;;;0.20;0.20;;;;;;;11.29;100.00;99493.47;6276841;28;20076;-72
2023/04/01 10:53:40;;;;;;;0.28;0.20;;;;;;;11.27;100.00;99489.28;6277026;28;20048;-72
2023/04/01 10:56:50;;;;;;;1.38;0.50;;;;;;;11.25;100.00;99491.19;6277019;28;20060;-73
2023/04/01 11:00:15;;;;;;;;;;;;;;;11.23;100.00;99493.94;6277494;28;20433;-72
2023/04/01 11:04:01;;;;;;;0.30;0.30;;;;;;;11.24;100.00;99502.66;6220727;28;20451;-72
2023/04/01 11:07:47;;;;;;;0.32;0.30;;;;;;;11.17;100.00;99508.41;6276494;28;20053;-72
2023/04/01 11:11:27;;;;;;;0.28;0.28;;;;;;;11.22;100.00;99515.94;6247207;28;20056;-72
2023/04/01 11:14:51;;;;;;;0.30;0.30;;;;;;;11.27;100.00;99515.59;6236371;28;20084;-70
2023/04/01 11:18:24;;;;;;;0.40;0.30;;;;;;;11.29;100.00;99518.94;6256911;28;20049;-72
2023/04/01 11:21:53;;;;;;;1.38;0.40;;;;;;;11.25;100.00;99530.63;6255529;28;20068;-73
2023/04/01 11:25:23;;;;;;;0.55;0.52;;;;;;;11.09;100.00;99533.59;6258428;28;20361;-73
2023/04/01 11:28:50;;;;;;;2.38;0.50;;;;;;;10.98;100.00;99546.69;6271744;28;20053;-74
2023/04/01 11:31:59;;;;;;;0.80;0.60;;;;;;;10.89;100.00;99549.03;6270974;28;20057;-74
2023/04/01 11:35:23;;;;;;;0.30;0.30;;;;;;;10.84;100.00;99547.72;6273311;28;20460;-73
2023/04/01 11:38:43;;;;;;;2.17;0.63;;;;;;;10.82;100.00;99549.63;6262295;28;20049;-73
2023/04/01 11:41:50;;;;;;;0.70;0.40;;;;;;;10.85;100.00;99552.00;6262303;28;20049;-73
2023/04/01 11:45:02;;;;;;;1.48;0.40;;;;;;;10.81;100.00;99559.31;6276073;28;20052;-73
2023/04/01 11:48:33;;;;;;;1.00;0.40;;;;;;;10.78;100.00;99558.69;6275549;28;20045;-73
2023/04/01 11:51:52;;;;;;;0.90;0.35;;;;;;;10.76;100.00;99563.19;6270479;28;20497;-73
2023/04/01 11:55:14;;;;;;;1.00;0.32;;;;;;;10.78;100.00;99577.06;6275582;28;20349;-73
2023/04/01 11:58:37;;;;;;;0.30;0.30;;;;;;;10.79;100.00;99571.69;6275329;28;20472;-73
2023/04/01 12:01:57;;;;;;;0.40;0.40;;;;;;;10.75;100.00;99577.28;6268791;28;20477;-73
2023/04/01 12:05:12;;;;;;;1.23;0.73;;;;;;;10.76;100.00;99581.59;6275362;28;20429;-73
2023/04/01 12:08:38;;;;;;;1.40;1.30;;;;;;;10.79;100.00;99586.63;6275293;28;20136;-73
2023/04/01 12:11:49;;;;;;;2.20;1.67;;;;;;;10.84;100.00;99584.50;6275508;28;20131;-74
2023/04/01 12:15:00;;;;;;;1.02;0.90;;;;;;;10.95;100.00;99591.63;6275379;28;20048;-73
2023/04/01 12:18:14;;;;;;;0.50;0.50;;;;;;;10.90;100.00;99594.56;6275288;28;20425;-73
2023/04/01 12:21:26;;;;;;;0.35;0.35;;;;;;;10.94;100.00;99601.28;6274636;28;20048;-72
2023/04/01 12:24:43;;;;;;;0.35;0.35;;;;;;;10.99;100.00;99606.19;6274977;28;20048;-73
2023/04/01 12:27:59;;;;;;;0.30;0.30;;;;;;;10.97;100.00;99610.72;6272676;28;20049;-73
2023/04/01 12:31:19;;;;;;;0.30;0.30;;;;;;;10.99;100.00;99614.06;6275381;28;20053;-73
2023/04/01 12:34:42;;;;;;;0.85;0.60;;;;;;;11.04;100.00;99612.81;6274905;28;20076;-72
2023/04/01 12:37:54;;;;;;;0.85;0.73;;;;;;;11.06;100.00;99617.94;6274606;28;20060;-73
2023/04/01 12:41:09;;;;;;;0.60;0.47;;;;;;;11.03;100.00;99629.50;6275060;28;20056;-72
2023/04/01 12:44:24;;;;;;;0.70;0.50;;;;;;;10.95;100.00;99629.25;6274718;28;20355;-71
2023/04/01 12:47:55;;;;;;;0.88;0.63;;;;;;;10.95;100.00;99637.16;6274708;28;20053;-71
2023/04/01 12:51:13;;;;;;;0.63;0.63;;;;;;;10.97;100.00;99643.13;6269949;28;20049;-71
2023/04/01 12:54:35;;;;;;;0.70;0.70;;;;;;;10.96;100.00;99645.88;6274888;28;20048;-71
2023/04/01 12:58:11;;;;;;;2.63;0.73;;;;;;;10.98;100.00;99662.34;6274730;28;20049;-71
2023/04/01 13:01:28;;;;;;;0.57;0.50;;;;;;;10.71;100.00;99660.75;6272296;28;20040;-71
2023/04/01 13:05:04;;;;;;;0.30;0.30;;;;;;;10.44;100.00;99668.78;6266689;28;20452;-72
2023/04/01 13:08:19;;;;;;;0.50;0.50;;;;;;;10.35;100.00;99679.94;6273635;28;20045;-72
2023/04/01 13:11:35;;;;;;;0.47;0.40;;;;;;;10.22;100.00;99682.56;6274170;28;20059;-71
2023/04/01 13:15:05;;;;;;;0.93;0.50;;;;;;;9.94;100.00;99686.22;6270853;28;20048;-71
2023/04/01 13:18:18;;;;;;;0.73;0.50;;;;;;;9.88;100.00;99690.09;6265939;28;20377;-71
2023/04/01 13:21:29;;;;;;;1.50;1.40;;;;;;;9.90;100.00;99692.59;6274065;28;20056;-71
2023/04/01 13:24:44;;;;;;;0.32;0.32;;;;;;;9.87;100.00;99711.22;6274439;28;20049;-72
2023/04/01 13:27:52;;;;;;;0.60;0.45;;;;;;;9.83;100.00;99707.09;6274257;28;20041;-71
2023/04/01 13:31:03;;;;;;;0.35;0.35;;;;;;;9.80;100.00;99710.75;6274536;28;20040;-71
2023/04/01 13:34:24;;;;;;;0.40;0.40;;;;;;;9.84;100.00;99717.47;6274455;28;20052;-72
2023/04/01 13:37:37;;;;;;;0.40;0.40;;;;;;;9.76;100.00;99718.94;6272945;28;20449;-71
2023/04/01 13:40:52;;;;;;;0.30;0.30;;;;;;;9.82;100.00;99735.13;6266726;28;20041;-71
2023/04/01 13:44:01;;;;;;;0.30;0.30;;;;;;;9.78;100.00;99744.13;6273434;28;20045;-72
2023/04/01 13:47:20;;;;;;;0.88;0.55;;;;;;;9.60;100.00;99754.06;6274510;28;20049;-73
2023/04/01 13:50:33;;;;;;;0.32;0.32;;;;;;;9.56;100.00;99756.97;6267408;28;20063;-71
2023/04/01 13:53:59;;;;;;;0.43;0.43;;;;;;;9.46;100.00;99759.38;6270917;28;20052;-78
2023/04/01 13:57:18;;;;;;;1.00;0.35;;;;;;;9.48;100.00;99757.47;6278128;28;20044;-74
2023/04/01 14:00:41;;;;;;;0.70;0.47;;;;;;;9.46;100.00;99769.84;6278520;28;20052;-77
2023/04/01 14:04:19;;;;;;;0.45;0.40;;;;;;;9.32;100.00;99773.38;6278066;28;20041;-75
2023/04/01 14:07:38;;;;;;;0.50;0.50;;;;;;;9.31;100.00;99782.16;6278338;28;20060;-74
2023/04/01 14:10:45;;;;;;;0.40;0.40;;;;;;;9.23;100.00;99786.22;6278006;28;20041;-74
2023/04/01 14:14:00;;;;;;;0.30;0.30;;;;;;;9.08;100.00;99786.25;6277903;28;20469;-75
2023/04/01 14:17:20;;;;;;;0.28;0.28;;;;;;;9.07;100.00;99802.03;6277857;28;20176;-75
2023/04/01 14:20:41;;;;;;;0.40;0.40;;;;;;;9.10;100.00;99797.47;6277752;28;20045;-76
2023/04/01 14:24:05;;;;;;;0.77;0.60;;;;;;;9.17;100.00;99808.38;6277213;28;20480;-76
2023/04/01 14:27:43;;;;;;;6.95;2.33;;;;;;;9.04;100.00;99810.97;6277678;28;20053;-72
2023/04/01 14:31:21;;;;;;;1.20;0.80;;;;;;;9.00;100.00;99817.31;6277501;28;20135;-72
2023/04/01 14:34:35;;;;;;;1.35;0.85;;;;;;;8.94;100.00;99820.28;6246564;28;20396;-71
2023/04/01 14:37:49;;;;;;;1.30;1.20;;;;;;;8.92;100.00;99835.28;6269348;28;20052;-72
2023/04/01 14:40:57;;;;;;;1.33;1.23;;;;;;;8.89;100.00;99828.44;6272058;28;20051;-72
2023/04/01 14:44:15;;;;;;;2.03;1.67;;;;;;;8.85;100.00;99839.19;6270995;28;20123;-72
2023/04/01 14:47:43;;;;;;;1.07;0.77;;;;;;;8.75;100.00;99843.31;6277152;28;20055;-70
2023/04/01 14:50:50;;;;;;;2.15;1.27;;;;;;;8.71;100.00;99852.28;6268947;28;20045;-71
2023/04/01 14:54:01;;;;;;;1.55;1.05;;;;;;;8.74;100.00;99850.34;6277042;28;20326;-71
2023/04/01 14:57:11;;;;;;;0.43;0.38;;;;;;;8.56;100.00;99854.91;6277060;28;20049;-72
2023/04/01 15:00:15;;;;;;;0.90;0.40;;;;;;;8.66;100.00;99860.44;6276819;28;20466;-73